createdAt,value
2023-05-24T00:00:38.483Z,4.22
2023-05-24T00:03:07.100Z,4.80
2023-05-24T00:05:37.807Z,4.90
2023-05-24T00:08:05.942Z,4.70
2023-05-24T00:10:33.735Z,4.90
2023-05-24T00:13:02.764Z,4.88
2023-05-24T00:15:30.589Z,4.43
2023-05-24T00:17:58.355Z,4.93
2023-05-24T00:20:26.836Z,4.80
2023-05-24T00:22:54.699Z,4.57
2023-05-24T00:25:22.404Z,6.57
2023-05-24T00:27:50.065Z,5.68
2023-05-24T00:30:19.308Z,4.72
2023-05-24T00:32:48.959Z,5.32
2023-05-24T00:35:16.888Z,4.70
2023-05-24T00:37:45.446Z,4.40
2023-05-24T00:40:14.114Z,4.45
2023-05-24T00:42:41.919Z,4.95
2023-05-24T00:45:10.816Z,5.07
2023-05-24T00:47:40.037Z,4.82
2023-05-24T00:50:11.900Z,4.97
2023-05-24T00:52:40.650Z,4.82
2023-05-24T00:55:09.745Z,4.90
2023-05-24T00:57:37.832Z,5.95
2023-05-24T01:00:07.705Z,5.80
2023-05-24T01:02:35.888Z,4.68
2023-05-24T01:05:05.826Z,4.60
2023-05-24T01:07:41.340Z,4.85
2023-05-24T01:10:17.851Z,4.78
2023-05-24T01:12:56.789Z,4.25
2023-05-24T01:15:32.503Z,4.38
2023-05-24T01:18:06.404Z,4.70
2023-05-24T01:20:38.814Z,5.53
2023-05-24T01:23:19.103Z,4.85
2023-05-24T01:26:09.157Z,5.10
2023-05-24T01:28:40.418Z,4.70
2023-05-24T01:31:08.483Z,4.72
2023-05-24T01:33:36.322Z,5.40
2023-05-24T01:36:03.978Z,5.63
2023-05-24T01:38:33.670Z,4.60
2023-05-24T01:41:08.691Z,4.65
2023-05-24T01:43:42.330Z,4.97
2023-05-24T01:46:17.502Z,5.20
2023-05-24T01:48:56.134Z,5.00
2023-05-24T01:51:27.178Z,5.03
2023-05-24T01:53:58.844Z,4.90
2023-05-24T01:56:27.643Z,5.15
2023-05-24T01:58:58.633Z,5.25
2023-05-24T02:01:27.513Z,4.78
2023-05-24T02:03:56.365Z,5.32
2023-05-24T02:06:24.212Z,4.93
2023-05-24T02:08:52.549Z,5.05
2023-05-24T02:11:20.801Z,5.07
2023-05-24T02:13:48.470Z,5.25
2023-05-24T02:16:18.094Z,5.65
2023-05-24T02:18:46.883Z,5.22
2023-05-24T02:21:15.302Z,5.38
2023-05-24T02:23:43.870Z,6.90
2023-05-24T02:26:13.245Z,7.97
2023-05-24T02:28:41.418Z,5.60
2023-05-24T02:31:09.278Z,5.53
2023-05-24T02:33:38.905Z,5.28
2023-05-24T02:36:06.880Z,5.22
2023-05-24T02:38:34.583Z,5.85
2023-05-24T02:41:02.286Z,5.80
2023-05-24T02:43:30.287Z,4.40
2023-05-24T02:45:58.167Z,4.78
2023-05-24T02:48:25.884Z,5.07
2023-05-24T02:50:54.870Z,4.95
2023-05-24T02:53:22.772Z,5.03
2023-05-24T02:55:51.126Z,5.57
2023-05-24T02:58:19.084Z,4.63
2023-05-24T03:00:49.176Z,4.55
2023-05-24T03:03:19.010Z,5.10
2023-05-24T03:05:46.745Z,4.63
2023-05-24T03:08:16.722Z,4.50
2023-05-24T03:10:44.683Z,5.10
2023-05-24T03:13:13.804Z,5.10
2023-05-24T03:15:42.911Z,4.57
2023-05-24T03:18:10.706Z,6.25
2023-05-24T03:20:40.347Z,6.40
2023-05-24T03:23:09.597Z,6.60
2023-05-24T03:25:38.799Z,5.43
2023-05-24T03:28:07.052Z,6.18
2023-05-24T03:30:35.107Z,5.18
2023-05-24T03:33:03.166Z,5.47
2023-05-24T03:35:31.418Z,4.80
2023-05-24T03:37:59.136Z,4.88
2023-05-24T03:40:32.353Z,4.53
2023-05-24T03:43:09.021Z,5.03
2023-05-24T03:45:53.322Z,4.70
2023-05-24T03:48:21.491Z,5.75
2023-05-24T03:50:51.294Z,6.43
2023-05-24T03:53:20.508Z,6.22
2023-05-24T03:55:50.006Z,4.95
2023-05-24T03:58:19.181Z,5.88
2023-05-24T04:00:46.968Z,5.68
2023-05-24T04:03:15.034Z,5.80
2023-05-24T04:05:42.833Z,5.53
2023-05-24T04:08:12.290Z,5.35
2023-05-24T04:10:40.588Z,7.93
2023-05-24T04:13:11.752Z,7.57
2023-05-24T04:15:40.918Z,5.70
2023-05-24T04:18:08.741Z,5.45
2023-05-24T04:20:36.716Z,5.75
2023-05-24T04:23:04.461Z,6.57
2023-05-24T04:25:33.431Z,8.20
2023-05-24T04:28:02.407Z,6.85
2023-05-24T04:30:31.423Z,7.07
2023-05-24T04:33:00.595Z,6.60
2023-05-24T04:35:30.177Z,5.72
2023-05-24T04:37:59.706Z,7.78
2023-05-24T04:40:27.406Z,6.68
2023-05-24T04:42:55.141Z,6.15
2023-05-24T04:45:22.863Z,6.28
2023-05-24T04:47:50.551Z,5.45
2023-05-24T04:50:19.605Z,5.70
2023-05-24T04:52:47.308Z,6.28
2023-05-24T04:55:15.025Z,5.85
2023-05-24T04:57:42.766Z,7.18
2023-05-24T05:00:11.893Z,7.07
2023-05-24T05:02:39.796Z,6.80
2023-05-24T05:05:08.343Z,5.78
2023-05-24T05:07:38.461Z,6.38
2023-05-24T05:10:07.515Z,6.07
2023-05-24T05:12:35.221Z,5.75
2023-05-24T05:15:03.111Z,6.60
2023-05-24T05:17:30.992Z,7.47
2023-05-24T05:19:58.695Z,7.25
2023-05-24T05:22:26.425Z,7.32
2023-05-24T05:24:55.427Z,6.70
2023-05-24T05:27:23.067Z,5.88
2023-05-24T05:29:50.853Z,6.47
2023-05-24T05:32:18.615Z,6.53
2023-05-24T05:34:46.617Z,6.72
2023-05-24T05:37:14.283Z,6.95
2023-05-24T05:39:41.972Z,6.07
2023-05-24T05:42:10.988Z,6.28
2023-05-24T05:44:38.654Z,7.20
2023-05-24T05:47:07.415Z,6.65
2023-05-24T05:49:36.329Z,6.65
2023-05-24T05:52:04.180Z,6.70
2023-05-24T05:54:32.040Z,6.78
2023-05-24T05:57:01.334Z,6.25
2023-05-24T05:59:30.814Z,7.15
2023-05-24T06:01:58.422Z,7.25
2023-05-24T06:04:26.215Z,7.47
2023-05-24T06:06:53.868Z,7.50
2023-05-24T06:09:21.487Z,6.38
2023-05-24T06:11:49.406Z,6.55
2023-05-24T06:14:18.306Z,6.65
2023-05-24T06:16:48.176Z,7.53
2023-05-24T06:19:16.603Z,7.60
2023-05-24T06:21:47.795Z,7.63
2023-05-24T06:24:15.990Z,8.02
2023-05-24T06:26:43.900Z,7.43
2023-05-24T06:29:11.556Z,8.00
2023-05-24T06:31:39.381Z,7.03
2023-05-24T06:34:08.418Z,6.50
2023-05-24T06:36:41.308Z,7.97
2023-05-24T06:39:09.389Z,8.38
2023-05-24T06:41:37.237Z,6.85
2023-05-24T06:44:04.933Z,7.15
2023-05-24T06:46:32.842Z,7.22
2023-05-24T06:49:00.871Z,7.38
2023-05-24T06:51:30.378Z,7.72
2023-05-24T06:53:59.474Z,7.93
2023-05-24T06:56:28.898Z,7.20
2023-05-24T06:58:57.100Z,8.20
2023-05-24T07:01:25.039Z,7.53
2023-05-24T07:03:52.824Z,6.72
2023-05-24T07:06:20.581Z,7.68
2023-05-24T07:08:49.577Z,6.82
2023-05-24T07:11:17.346Z,6.75
2023-05-24T07:13:45.029Z,7.55
2023-05-24T07:16:13.849Z,7.18
2023-05-24T07:18:42.212Z,7.82
2023-05-24T07:21:09.878Z,6.10
2023-05-24T07:23:38.214Z,7.22
2023-05-24T07:26:09.110Z,6.97
2023-05-24T07:28:37.943Z,7.28
2023-05-24T07:31:08.246Z,7.18
2023-05-24T07:33:37.271Z,6.88
2023-05-24T07:36:05.999Z,7.07
2023-05-24T07:38:34.177Z,7.35
2023-05-24T07:41:03.473Z,7.43
2023-05-24T07:43:32.498Z,7.75
2023-05-24T07:46:00.243Z,7.47
2023-05-24T07:48:28.235Z,9.32
2023-05-24T07:50:56.782Z,6.80
2023-05-24T07:53:24.571Z,8.32
2023-05-24T07:55:52.296Z,7.10
2023-05-24T07:58:20.037Z,6.10
2023-05-24T08:00:49.257Z,7.20
2023-05-24T08:03:17.884Z,7.20
2023-05-24T08:05:45.960Z,7.85
2023-05-24T08:08:13.974Z,7.65
2023-05-24T08:10:41.844Z,6.43
2023-05-24T08:13:09.526Z,6.35
2023-05-24T08:15:37.158Z,6.30
2023-05-24T08:18:06.398Z,6.38
2023-05-24T08:20:36.304Z,6.32
2023-05-24T08:23:04.074Z,6.78
2023-05-24T08:25:31.806Z,6.25
2023-05-24T08:27:59.604Z,8.65
2023-05-24T08:30:27.431Z,5.80
2023-05-24T08:32:55.261Z,6.45
2023-05-24T08:35:24.334Z,7.47
2023-05-24T08:37:52.164Z,6.43
2023-05-24T08:40:23.878Z,7.72
2023-05-24T08:42:52.134Z,7.45
2023-05-24T08:45:22.845Z,7.05
2023-05-24T08:47:51.930Z,7.00
2023-05-24T08:50:21.270Z,7.22
2023-05-24T08:52:50.761Z,7.30
2023-05-24T08:55:18.758Z,7.90
2023-05-24T08:57:47.025Z,6.55
2023-05-24T09:00:16.674Z,7.53
2023-05-24T09:02:46.118Z,6.85
2023-05-24T09:05:17.237Z,6.80
2023-05-24T09:07:46.465Z,6.13
2023-05-24T09:10:16.380Z,6.68
2023-05-24T09:12:46.736Z,7.00
2023-05-24T09:15:14.464Z,7.57
2023-05-24T09:17:42.208Z,6.93
2023-05-24T09:20:12.018Z,6.72
2023-05-24T09:22:42.960Z,6.03
2023-05-24T09:25:13.898Z,6.25
2023-05-24T09:27:45.572Z,5.60
2023-05-24T09:30:16.436Z,6.60
2023-05-24T09:32:56.171Z,6.72
2023-05-24T09:35:24.325Z,5.78
2023-05-24T09:37:57.580Z,4.68
2023-05-24T09:40:25.646Z,4.65
2023-05-24T09:43:09.638Z,5.03
2023-05-24T09:45:43.020Z,5.28
2023-05-24T09:48:14.278Z,4.45
2023-05-24T09:50:42.299Z,5.07
2023-05-24T09:53:10.153Z,4.68
2023-05-24T09:55:38.463Z,4.40
2023-05-24T09:58:08.838Z,4.63
2023-05-24T10:00:39.667Z,5.68
2023-05-24T10:03:08.935Z,4.68
2023-05-24T10:05:37.408Z,4.70
2023-05-24T10:08:06.011Z,4.55
2023-05-24T10:10:34.921Z,4.50
2023-05-24T10:13:03.475Z,4.65
2023-05-24T10:15:32.488Z,4.40
2023-05-24T10:18:01.743Z,4.03
2023-05-24T10:20:29.858Z,4.43
2023-05-24T10:23:01.599Z,3.50
2023-05-24T10:25:30.440Z,4.00
2023-05-24T10:27:59.605Z,3.72
2023-05-24T10:30:33.926Z,4.47
2023-05-24T10:33:03.271Z,4.32
2023-05-24T10:35:32.697Z,4.05
2023-05-24T10:38:00.972Z,4.13
2023-05-24T10:40:29.020Z,4.25
2023-05-24T10:42:56.945Z,3.90
2023-05-24T10:45:35.597Z,5.47
2023-05-24T10:48:11.314Z,4.82
2023-05-24T10:50:39.215Z,4.30
2023-05-24T10:53:14.554Z,4.55
2023-05-24T10:55:56.262Z,3.65
2023-05-24T10:58:30.530Z,3.55
2023-05-24T11:00:59.700Z,3.45
2023-05-24T11:03:33.763Z,3.78
2023-05-24T11:06:01.656Z,3.35
2023-05-24T11:08:33.193Z,3.40
2023-05-24T11:11:22.292Z,3.60
2023-05-24T11:13:57.656Z,3.13
2023-05-24T11:16:39.391Z,3.15
2023-05-24T11:19:14.291Z,3.72
2023-05-24T11:21:44.516Z,3.55
2023-05-24T11:24:12.695Z,4.03
2023-05-24T11:26:40.570Z,4.85
2023-05-24T11:29:08.975Z,5.20
2023-05-24T11:31:43.246Z,4.38
2023-05-24T11:34:11.866Z,6.55
2023-05-24T11:36:39.741Z,5.30
2023-05-24T11:39:09.600Z,5.80
2023-05-24T11:41:39.084Z,4.88
2023-05-24T11:44:08.759Z,5.40
2023-05-24T11:46:41.991Z,5.13
2023-05-24T11:49:14.321Z,4.82
2023-05-24T11:51:42.772Z,4.32
2023-05-24T11:54:11.714Z,3.72
2023-05-24T11:56:40.130Z,3.90
2023-05-24T11:59:12.835Z,4.30
2023-05-24T12:01:42.378Z,3.97
2023-05-24T12:04:10.703Z,3.58
2023-05-24T12:06:42.734Z,4.05
2023-05-24T12:09:13.480Z,3.60
2023-05-24T12:11:42.408Z,4.22
2023-05-24T12:14:13.684Z,4.07
2023-05-24T12:16:43.704Z,4.68
2023-05-24T12:19:30.929Z,3.63
2023-05-24T12:22:01.033Z,3.95
2023-05-24T12:24:29.194Z,4.53
2023-05-24T12:27:01.207Z,4.18
2023-05-24T12:29:33.277Z,3.58
2023-05-24T12:32:02.842Z,3.63
2023-05-24T12:34:30.982Z,4.57
2023-05-24T12:36:58.909Z,5.40
2023-05-24T12:39:31.899Z,3.83
2023-05-24T12:42:01.876Z,5.15
2023-05-24T12:44:31.403Z,4.90
2023-05-24T12:46:59.806Z,4.63
2023-05-24T12:49:29.425Z,4.97
2023-05-24T12:51:57.804Z,5.18
2023-05-24T12:54:27.450Z,4.68
2023-05-24T12:56:57.225Z,4.75
2023-05-24T12:59:27.289Z,4.57
2023-05-24T13:01:55.092Z,4.68
2023-05-24T13:04:26.277Z,5.15
2023-05-24T13:06:55.810Z,5.13
2023-05-24T13:09:25.468Z,5.00
2023-05-24T13:11:54.279Z,4.32
2023-05-24T13:14:22.673Z,5.35
2023-05-24T13:16:50.844Z,4.20
2023-05-24T13:19:18.994Z,4.10
2023-05-24T13:21:46.787Z,4.63
2023-05-24T13:24:17.413Z,3.97
2023-05-24T13:26:46.191Z,4.30
2023-05-24T13:31:44.988Z,4.03
2023-05-24T13:34:13.125Z,3.55
2023-05-24T13:36:41.629Z,4.55
2023-05-24T13:41:43.802Z,3.92
2023-05-24T13:44:12.058Z,3.65
2023-05-24T13:46:40.879Z,4.45
2023-05-24T13:49:09.801Z,6.75
2023-05-24T13:51:38.140Z,4.50
2023-05-24T13:54:07.728Z,3.97
2023-05-24T13:56:36.458Z,3.42
2023-05-24T13:59:06.604Z,4.05
2023-05-24T14:01:35.850Z,4.30
2023-05-24T14:04:04.186Z,4.70
2023-05-24T14:06:32.312Z,4.55
2023-05-24T14:09:00.275Z,4.57
2023-05-24T14:11:31.403Z,5.18
2023-05-24T14:16:31.437Z,5.50
2023-05-24T14:18:59.264Z,5.18
2023-05-24T14:21:27.584Z,4.68
2023-05-24T14:23:55.778Z,4.80
2023-05-24T14:26:24.243Z,5.00
2023-05-24T14:28:55.369Z,5.03
2023-05-24T14:31:24.628Z,5.03
2023-05-24T14:33:53.837Z,5.68
2023-05-24T14:36:21.766Z,5.93
2023-05-24T14:38:49.482Z,5.70
2023-05-24T14:41:17.163Z,6.05
2023-05-24T14:43:45.010Z,5.90
2023-05-24T14:46:12.816Z,5.47
2023-05-24T14:48:41.579Z,5.82
2023-05-24T14:51:10.989Z,5.68
2023-05-24T14:53:38.784Z,6.22
2023-05-24T14:56:09.041Z,5.22
2023-05-24T14:58:36.943Z,5.20
2023-05-24T15:01:04.789Z,5.47
2023-05-24T15:03:32.833Z,5.53
2023-05-24T15:06:00.920Z,4.75
2023-05-24T15:08:30.913Z,4.93
2023-05-24T15:10:59.259Z,4.60
2023-05-24T15:13:27.205Z,5.10
2023-05-24T15:15:56.763Z,4.65
2023-05-24T15:18:27.954Z,4.57
2023-05-24T15:20:56.184Z,4.82
2023-05-24T15:23:25.385Z,5.38
2023-05-24T15:25:54.648Z,5.00
2023-05-24T15:28:24.751Z,5.53
2023-05-24T15:30:54.184Z,6.13
2023-05-24T15:33:22.054Z,5.88
2023-05-24T15:35:49.844Z,5.65
2023-05-24T15:38:18.568Z,6.15
2023-05-24T15:40:46.411Z,5.60
2023-05-24T15:43:16.592Z,4.95
2023-05-24T15:45:44.733Z,5.75
2023-05-24T15:48:12.987Z,4.93
2023-05-24T15:53:11.678Z,4.80
2023-05-24T15:55:39.367Z,5.60
2023-05-24T15:58:07.162Z,4.95
2023-05-24T16:00:36.386Z,5.32
2023-05-24T16:03:04.781Z,4.90
2023-05-24T16:05:32.827Z,4.57
2023-05-24T16:08:02.657Z,4.97
2023-05-24T16:10:30.805Z,4.93
2023-05-24T16:12:58.783Z,4.88
2023-05-24T16:15:29.903Z,4.68
2023-05-24T16:17:59.214Z,4.78
2023-05-24T16:20:27.110Z,4.55
2023-05-24T16:22:54.991Z,4.30
2023-05-24T16:25:22.920Z,5.35
2023-05-24T16:27:50.667Z,5.07
2023-05-24T16:30:18.467Z,6.90
2023-05-24T16:32:46.375Z,5.45
2023-05-24T16:35:15.593Z,5.50
2023-05-24T16:37:43.375Z,6.53
2023-05-24T16:40:12.173Z,5.10
2023-05-24T16:42:39.949Z,4.78
2023-05-24T16:45:08.465Z,5.25
2023-05-24T16:47:36.676Z,4.47
2023-05-24T16:50:05.128Z,4.45
2023-05-24T16:52:34.361Z,5.15
2023-05-24T16:55:02.047Z,4.60
2023-05-24T16:57:29.816Z,4.45
2023-05-24T16:59:58.246Z,5.03
2023-05-24T17:02:26.401Z,4.53
2023-05-24T17:04:54.369Z,4.53
2023-05-24T17:07:22.130Z,4.88
2023-05-24T17:09:52.327Z,5.13
2023-05-24T17:12:21.768Z,4.65
2023-05-24T17:14:49.449Z,4.85
2023-05-24T17:17:17.279Z,4.80
2023-05-24T17:19:45.245Z,5.15
2023-05-24T17:22:13.015Z,4.72
2023-05-24T17:24:40.884Z,4.93
2023-05-24T17:27:09.931Z,5.93
2023-05-24T17:29:37.842Z,4.40
2023-05-24T17:32:06.192Z,4.75
2023-05-24T17:34:33.986Z,4.18
2023-05-24T17:37:01.771Z,4.75
2023-05-24T17:39:29.562Z,4.60
2023-05-24T17:41:57.256Z,5.55
2023-05-24T17:44:26.412Z,4.85
2023-05-24T17:46:54.320Z,4.60
2023-05-24T17:49:21.997Z,4.13
2023-05-24T17:51:49.800Z,4.68
2023-05-24T17:54:17.573Z,4.95
2023-05-24T17:56:45.356Z,5.03
2023-05-24T17:59:13.007Z,4.40
2023-05-24T18:01:43.900Z,4.90
2023-05-24T18:04:14.008Z,5.63
2023-05-24T18:06:41.675Z,4.88
2023-05-24T18:09:09.906Z,4.75
2023-05-24T18:11:37.690Z,4.60
2023-05-24T18:14:05.688Z,5.70
2023-05-24T18:16:33.697Z,5.88
2023-05-24T18:19:05.669Z,5.38
2023-05-24T18:21:33.569Z,6.07
2023-05-24T18:24:01.474Z,5.93
2023-05-24T18:26:29.302Z,5.13
2023-05-24T18:28:56.956Z,6.13
2023-05-24T18:31:24.916Z,5.07
2023-05-24T18:33:52.794Z,5.53
2023-05-24T18:36:21.877Z,5.25
2023-05-24T18:38:50.072Z,5.75
2023-05-24T18:41:18.365Z,5.78
2023-05-24T18:43:46.139Z,5.38
2023-05-24T18:46:14.883Z,5.18
2023-05-24T18:48:43.174Z,5.82
2023-05-24T18:51:11.075Z,5.28
2023-05-24T18:53:40.561Z,5.10
2023-05-24T18:56:08.312Z,5.70
2023-05-24T18:58:36.219Z,5.68
2023-05-24T19:01:04.052Z,6.05
2023-05-24T19:03:31.957Z,5.05
2023-05-24T19:05:59.700Z,5.82
2023-05-24T19:08:27.572Z,5.68
2023-05-24T19:10:56.772Z,5.05
2023-05-24T19:13:25.811Z,4.95
2023-05-24T19:15:53.745Z,5.45
2023-05-24T19:18:21.756Z,5.55
2023-05-24T19:20:49.835Z,5.47
2023-05-24T19:23:17.579Z,5.35
2023-05-24T19:25:50.023Z,5.75
2023-05-24T19:28:19.568Z,5.38
2023-05-24T19:30:47.383Z,5.40
2023-05-24T19:33:15.282Z,5.90
2023-05-24T19:35:43.199Z,5.60
2023-05-24T19:38:12.085Z,5.53
2023-05-24T19:40:39.875Z,5.03
2023-05-24T19:43:07.720Z,5.30
2023-05-24T19:45:37.027Z,5.50
2023-05-24T19:48:05.273Z,5.60
2023-05-24T19:50:33.205Z,5.85
2023-05-24T19:53:01.055Z,6.18
2023-05-24T19:55:28.887Z,6.22
2023-05-24T19:57:56.766Z,6.97
2023-05-24T20:00:24.654Z,5.85
2023-05-24T20:02:53.963Z,5.93
2023-05-24T20:05:22.385Z,6.47
2023-05-24T20:07:50.295Z,6.22
2023-05-24T20:10:24.509Z,6.90
2023-05-24T20:12:52.526Z,8.00
2023-05-24T20:15:20.355Z,7.20
2023-05-24T20:17:51.576Z,6.40
2023-05-24T20:20:23.976Z,8.52
2023-05-24T20:22:51.788Z,6.38
2023-05-24T20:25:20.333Z,7.63
2023-05-24T20:27:48.182Z,6.20
2023-05-24T20:30:17.748Z,6.90
2023-05-24T20:32:46.077Z,6.68
2023-05-24T20:35:13.919Z,6.97
2023-05-24T20:37:43.287Z,6.65
2023-05-24T20:40:13.394Z,6.57
2023-05-24T20:42:41.328Z,6.93
2023-05-24T20:45:10.475Z,6.75
2023-05-24T20:47:38.370Z,6.53
2023-05-24T20:50:08.926Z,6.38
2023-05-24T20:52:36.562Z,7.82
2023-05-24T20:55:06.240Z,8.05
2023-05-24T20:57:33.970Z,7.15
2023-05-24T21:00:01.687Z,7.53
2023-05-24T21:02:29.365Z,7.20
2023-05-24T21:04:57.557Z,7.18
2023-05-24T21:07:25.232Z,7.22
2023-05-24T21:09:53.938Z,7.95
2023-05-24T21:12:22.987Z,7.97
2023-05-24T21:14:53.618Z,7.32
2023-05-24T21:17:21.276Z,8.07
2023-05-24T21:19:48.975Z,6.97
2023-05-24T21:22:16.753Z,6.78
2023-05-24T21:24:44.338Z,6.90
2023-05-24T21:27:12.060Z,7.38
2023-05-24T21:29:41.748Z,7.30
2023-05-24T21:32:09.375Z,6.85
2023-05-24T21:34:37.206Z,5.82
2023-05-24T21:37:05.452Z,6.32
2023-05-24T21:39:33.616Z,6.28
2023-05-24T21:42:02.147Z,5.85
2023-05-24T21:44:29.900Z,6.22
2023-05-24T21:46:59.125Z,5.82
2023-05-24T21:49:27.519Z,5.43
2023-05-24T21:51:55.245Z,5.75
2023-05-24T21:54:22.919Z,6.38
2023-05-24T21:56:50.605Z,6.03
2023-05-24T21:59:18.257Z,5.97
2023-05-24T22:01:45.971Z,6.57
2023-05-24T22:04:15.503Z,7.07
2023-05-24T22:06:45.819Z,5.85
2023-05-24T22:09:13.884Z,6.25
2023-05-24T22:11:44.801Z,6.32
2023-05-24T22:14:12.483Z,6.43
2023-05-24T22:16:40.227Z,5.75
2023-05-24T22:19:13.533Z,7.30
2023-05-24T22:21:43.876Z,6.30
2023-05-24T22:24:11.804Z,5.93
2023-05-24T22:26:41.528Z,6.18
2023-05-24T22:29:09.312Z,5.88
2023-05-24T22:31:37.056Z,5.93
2023-05-24T22:34:04.840Z,7.13
2023-05-24T22:36:33.574Z,6.32
2023-05-24T22:39:03.631Z,6.05
2023-05-24T22:41:31.393Z,6.30
2023-05-24T22:43:59.649Z,6.18
2023-05-24T22:46:27.397Z,5.43
2023-05-24T22:48:57.944Z,6.13
2023-05-24T22:51:26.199Z,5.30
2023-05-24T22:53:54.674Z,5.43
2023-05-24T22:56:24.231Z,5.15
2023-05-24T22:58:53.216Z,5.20
2023-05-24T23:01:21.158Z,5.90
2023-05-24T23:03:48.978Z,4.85
2023-05-24T23:06:17.541Z,4.95
2023-05-24T23:08:45.407Z,5.63
2023-05-24T23:11:13.345Z,4.82
2023-05-24T23:13:42.702Z,4.60
2023-05-24T23:16:10.447Z,5.15
2023-05-24T23:18:42.834Z,4.50
2023-05-24T23:21:11.116Z,4.93
2023-05-24T23:23:39.095Z,5.32
2023-05-24T23:26:07.242Z,5.53
2023-05-24T23:28:35.141Z,4.47
2023-05-24T23:31:04.313Z,5.28
2023-05-24T23:33:32.087Z,5.65
2023-05-24T23:35:59.871Z,5.15
2023-05-24T23:38:27.621Z,4.93
2023-05-24T23:40:55.587Z,5.25
2023-05-24T23:43:23.495Z,4.57
2023-05-24T23:45:51.252Z,5.43
2023-05-24T23:48:21.090Z,5.63
2023-05-24T23:50:53.973Z,5.32
2023-05-24T23:53:22.194Z,5.20
2023-05-24T23:55:50.042Z,5.03
2023-05-24T23:58:17.929Z,4.90
